Terminal Aerodrome Forecast
Issued by NWS

Home | Current Version | Previous Version | Text Only | Print | Product List | Glossary On
Versions: 1 2 3 4 5 6 7 8 9 10 11 12 13 14 15
000
FTUS42 KTBW 221403 AAA
TAFRSW
TAF AMD
KRSW 221403Z 2214/2312 09005KT 6SM BR BKN015
     FM221500 12009KT P6SM SCT015
     FM221700 16011KT P6SM SCT035 BKN150
     FM230100 14007KT P6SM SCT050 BKN100
     FM230800 14004KT 5SM BR BKN015=

USA.gov is the U.S. government's official web portal to all federal, state and local government web resources and services.